Time;durP1;ratioP1;P1;durP2;ratioP2;P2;SDS_P1;SDS_P2;PMS_P1;PMS_P2;Temp;Humidity;BMP_temperature;BMP_pressure;BME280_temperature;BME280_humidity;BME280_pressure;Samples;Min_cycle;Max_cycle;Signal;HPM_P1;HPM_P2
2024/02/22 04:10:59;;;;;;;14.20;12.70;;;;;;;13.97;55.07;99619.59;102331;1283;613189;-59
2024/02/22 04:14:00;;;;;;;13.90;12.30;;;;;;;15.16;48.43;99619.56;103235;1272;60648;-60
2024/02/22 04:17:19;;;;;;;12.60;11.30;;;;;;;15.08;48.17;99618.13;103957;1265;61598;-62
2024/02/22 04:20:37;;;;;;;15.10;11.40;;;;;;;15.05;47.98;99619.69;104341;1265;71893;-61
2024/02/22 04:23:17;;;;;;;12.50;11.20;;;;;;;15.09;47.71;99618.61;99567;1268;6044675;-59
2024/02/22 04:26:37;;;;;;;13.70;12.20;;;;;;;15.03;47.47;99622.11;104206;1263;72624;-60
2024/02/22 04:29:55;;;;;;;13.00;11.70;;;;;;;14.99;47.72;99621.65;104376;1262;60607;-60
2024/02/22 04:33:13;;;;;;;12.50;11.20;;;;;;;15.00;47.66;99620.18;104145;1262;59830;-59
2024/02/22 04:36:32;;;;;;;13.30;11.60;;;;;;;14.89;47.60;99621.58;104493;1264;72493;-59
2024/02/22 04:39:51;;;;;;;14.80;12.00;;;;;;;14.78;47.80;99620.08;104445;1267;70051;-59
2024/02/22 04:42:28;;;;;;;13.70;11.70;;;;;;;14.72;48.05;99621.73;104349;1263;71913;-59
2024/02/22 04:45:46;;;;;;;13.20;11.20;;;;;;;14.68;48.04;99616.86;104755;1258;60814;-59
2024/02/22 04:49:04;;;;;;;13.60;11.90;;;;;;;14.66;48.29;99617.84;104138;1260;60890;-59
2024/02/22 04:52:23;;;;;;;13.20;11.80;;;;;;;14.67;48.21;99618.29;104336;1278;71866;-59
2024/02/22 04:55:41;;;;;;;14.10;12.50;;;;;;;14.69;47.98;99615.92;104760;1255;69049;-60
2024/02/22 04:58:47;;;;;;;13.70;12.30;;;;;;;14.66;48.38;99617.47;104167;1259;72978;-60
2024/02/22 05:02:07;;;;;;;14.50;12.60;;;;;;;14.52;49.05;99623.38;104776;1257;61005;-61
2024/02/22 05:05:29;;;;;;;14.80;12.20;;;;;;;14.52;49.15;99618.81;104734;1261;59753;-61
2024/02/22 05:08:01;;;;;;;14.30;12.80;;;;;;;14.53;49.20;99614.34;104409;1256;73274;-61
2024/02/22 05:11:21;;;;;;;14.20;12.80;;;;;;;14.56;49.19;99609.94;104580;1258;69114;-59
2024/02/22 05:13:51;;;;;;;13.90;12.40;;;;;;;14.61;49.15;99607.55;105227;1256;72515;-61
2024/02/22 05:17:12;;;;;;;14.60;13.10;;;;;;;14.68;49.04;99609.97;105213;1255;60918;-61
2024/02/22 05:20:32;;;;;;;14.50;13.00;;;;;;;14.68;49.07;99615.76;104968;1257;59760;-61
2024/02/22 05:23:48;;;;;;;13.90;12.40;;;;;;;14.71;49.02;99618.75;104692;1257;72812;-60
2024/02/22 05:27:06;;;;;;;16.30;13.40;;;;;;;14.61;49.26;99616.91;105016;1253;69035;-60
2024/02/22 05:30:17;;;;;;;13.80;12.00;;;;;;;14.85;48.80;99616.54;104262;1267;71416;-60
2024/02/22 05:33:35;;;;;;;13.90;12.50;;;;;;;15.03;48.35;99612.75;105832;1256;61191;-59
2024/02/22 05:36:54;;;;;;;14.50;13.00;;;;;;;15.06;48.30;99614.71;104725;1257;60232;-59
2024/02/22 05:40:12;;;;;;;15.70;13.90;;;;;;;15.04;48.20;99615.20;105774;1253;72928;-59
2024/02/22 05:43:31;;;;;;;15.60;13.40;;;;;;;15.06;48.23;99610.80;104999;1256;69138;-63
2024/02/22 05:46:51;;;;;;;16.60;13.60;;;;;;;15.08;48.08;99607.55;108177;1252;75142;-60
2024/02/22 05:50:10;;;;;;;13.90;12.50;;;;;;;15.03;48.30;99607.86;108287;1252;62182;-61
2024/02/22 05:59:50;;;;;;;15.40;13.80;;;;;;;15.07;48.96;99610.05;102144;1286;617454;-60
2024/02/22 06:03:11;;;;;;;15.10;13.40;;;;;;;15.07;49.31;99612.38;104030;1270;60229;-59
2024/02/22 06:06:29;;;;;;;15.40;13.70;;;;;;;15.30;48.93;99608.29;103926;1269;59757;-60
2024/02/22 06:09:47;;;;;;;15.90;13.90;;;;;;;15.27;48.69;99610.93;104228;1271;72466;-62
2024/02/22 06:13:13;;;;;;;17.00;12.60;;;;;;;15.16;49.20;99612.69;99055;1269;6921226;-61
2024/02/22 06:16:32;;;;;;;15.60;13.50;;;;;;;15.07;49.19;99609.34;103913;1267;60589;-61
2024/02/22 06:19:50;;;;;;;16.20;14.40;;;;;;;14.98;49.38;99606.36;103845;1267;60746;-62
2024/02/22 06:23:09;;;;;;;15.60;14.00;;;;;;;15.04;49.35;99602.84;105534;1260;74620;-60
2024/02/22 06:26:28;;;;;;;16.40;14.20;;;;;;;15.10;49.38;99599.80;104609;1259;69531;-61
2024/02/22 06:29:01;;;;;;;18.60;14.10;;;;;;;15.09;49.46;99603.55;104877;1255;72381;-62
2024/02/22 06:32:19;;;;;;;16.30;14.40;;;;;;;15.11;49.35;99602.90;104309;1269;60844;-59
2024/02/22 06:35:37;;;;;;;15.60;13.90;;;;;;;15.06;49.69;99603.06;105307;1260;60833;-60
2024/02/22 06:38:11;;;;;;;19.90;14.60;;;;;;;15.09;49.63;99608.14;104685;1254;73510;-61
2024/02/22 06:41:31;;;;;;;17.20;15.30;;;;;;;15.12;49.52;99610.09;104932;1254;69456;-61
2024/02/22 06:44:49;;;;;;;17.10;14.50;;;;;;;15.15;49.78;99606.35;104957;1259;73583;-60
2024/02/22 06:48:07;;;;;;;16.50;14.10;;;;;;;15.19;49.64;99604.50;104677;1260;60933;-61
2024/02/22 06:51:20;;;;;;;15.50;13.80;;;;;;;15.23;49.61;99606.95;105957;1255;61366;-60
2024/02/22 06:54:39;;;;;;;16.10;14.40;;;;;;;15.18;50.02;99609.55;105258;1254;75310;-61
2024/02/22 06:58:04;;;;;;;15.50;13.90;;;;;;;15.17;50.38;99608.71;105135;1256;69477;-59
2024/02/22 07:01:22;;;;;;;19.00;15.20;;;;;;;15.34;50.03;99603.97;104754;1258;72781;-58
2024/02/22 07:04:40;;;;;;;18.10;15.10;;;;;;;15.49;50.10;99598.27;104706;1254;59923;-60
2024/02/22 07:07:12;;;;;;;18.10;16.20;;;;;;;15.73;49.58;99595.30;104705;1256;61706;-59
2024/02/22 07:10:30;;;;;;;17.30;15.30;;;;;;;15.74;49.45;99596.66;105469;1257;72742;-60
2024/02/22 07:13:21;;;;;;;21.10;16.70;;;;;;;15.83;49.43;99595.55;104871;1254;70101;-62
2024/02/22 07:16:36;;;;;;;22.00;16.90;;;;;;;15.93;49.11;99590.98;104885;1260;74858;-61
2024/02/22 07:19:47;;;;;;;22.60;17.00;;;;;;;15.91;49.17;99590.96;105135;1254;59889;-60
2024/02/22 07:23:05;;;;;;;19.30;17.10;;;;;;;15.88;49.68;99586.77;104505;1254;60098;-60
2024/02/22 07:26:24;;;;;;;20.80;18.20;;;;;;;15.96;49.64;99587.14;104731;1259;74834;-61
2024/02/22 07:28:59;;;;;;;21.00;17.40;;;;;;;15.92;49.81;99586.30;104944;1254;69477;-61
2024/02/22 07:36:07;;;;;;;20.40;17.70;;;;;;;16.11;49.55;99585.60;104846;1256;60892;-66
2024/02/22 07:39:28;;;;;;;19.50;16.50;;;;;;;16.20;49.30;99586.91;104890;1254;62427;-69
2024/02/22 07:42:48;;;;;;;21.00;18.30;;;;;;;16.21;49.57;99585.45;105206;1256;72833;-68
2024/02/22 07:46:07;;;;;;;22.30;18.90;;;;;;;16.35;49.35;99584.84;104701;1253;70817;-68
2024/02/22 07:49:27;;;;;;;22.00;18.20;;;;;;;16.39;49.59;99580.91;104682;1254;73435;-68
2024/02/22 07:52:45;;;;;;;24.80;18.40;;;;;;;16.56;49.47;99580.25;105676;1254;60930;-63
2024/02/22 07:56:05;;;;;;;26.00;19.40;;;;;;;16.72;49.28;99580.94;105020;1253;60073;-61
2024/02/22 07:59:34;;;;;;;26.40;18.20;;;;;;;16.86;48.94;99579.42;104855;1253;75103;-61
2024/02/22 08:02:02;;;;;;;24.40;18.70;;;;;;;16.91;48.75;99582.80;105254;1261;69249;-62
2024/02/22 08:05:22;;;;;;;23.70;19.80;;;;;;;16.90;48.68;99583.98;105446;1254;72524;-69
2024/02/22 08:08:29;;;;;;;25.00;20.00;;;;;;;17.02;48.59;99582.04;105332;1254;60113;-61
2024/02/22 08:11:49;;;;;;;28.10;19.70;;;;;;;16.91;48.88;99579.45;104491;1264;59791;-61
2024/02/22 08:14:20;;;;;;;25.90;18.90;;;;;;;16.94;49.18;99573.91;105800;1256;72974;-65
2024/02/22 08:17:41;;;;;;;22.50;18.60;;;;;;;16.95;48.89;99570.67;106171;1254;71478;-61
2024/02/22 08:21:00;;;;;;;20.70;18.00;;;;;;;16.97;48.98;99568.74;105351;1257;74511;-65
2024/02/22 08:24:22;;;;;;;22.50;19.20;;;;;;;16.99;48.88;99567.02;104382;1254;61008;-62
2024/02/22 08:27:29;;;;;;;25.10;19.90;;;;;;;17.21;48.40;99560.88;104847;1254;59829;-62
2024/02/22 08:30:48;;;;;;;22.40;18.60;;;;;;;17.29;48.30;99557.11;104422;1254;71856;-60
2024/02/22 08:34:07;;;;;;;23.60;19.60;;;;;;;17.18;48.23;99555.21;105188;1256;70544;-60
2024/02/22 08:37:27;;;;;;;28.10;20.30;;;;;;;17.32;48.36;99556.89;104555;1257;72540;-63
2024/02/22 08:40:46;;;;;;;27.60;19.80;;;;;;;17.36;48.00;99547.74;105825;1256;61874;-62
2024/02/22 08:44:05;;;;;;;22.10;18.60;;;;;;;17.39;47.99;99554.30;105150;1253;59823;-61
2024/02/22 08:47:25;;;;;;;24.50;20.10;;;;;;;17.44;48.19;99548.91;104890;1256;74008;-60
2024/02/22 08:49:58;;;;;;;23.60;20.30;;;;;;;17.45;48.12;99547.48;105222;1257;71868;-62
2024/02/22 08:53:22;;;;;;;26.20;20.30;;;;;;;17.58;48.13;99548.50;104636;1261;72967;-61
2024/02/22 08:56:41;;;;;;;24.70;20.20;;;;;;;17.66;47.99;99544.65;105161;1255;60737;-61
2024/02/22 09:00:00;;;;;;;29.70;21.50;;;;;;;17.91;47.94;99543.74;105042;1255;61644;-61
2024/02/22 09:03:19;;;;;;;22.80;19.30;;;;;;;17.98;47.68;99537.90;104829;1258;75382;-61
2024/02/22 09:06:39;;;;;;;26.50;21.30;;;;;;;17.96;47.37;99532.23;105885;1253;70401;-61
2024/02/22 09:09:51;;;;;;;28.10;21.30;;;;;;;17.93;47.65;99533.48;106752;1253;72589;-61
2024/02/22 09:13:11;;;;;;;26.50;21.50;;;;;;;18.04;48.02;99532.46;105310;1256;60715;-61
2024/02/22 09:16:31;;;;;;;25.00;20.60;;;;;;;18.18;47.84;99525.73;106450;1253;61522;-64
2024/02/22 09:19:51;;;;;;;27.40;22.90;;;;;;;17.99;47.61;99528.09;105690;1254;74678;-63
2024/02/22 09:23:10;;;;;;;28.80;22.60;;;;;;;18.10;47.86;99526.89;106769;1257;71559;-62
2024/02/22 09:26:30;;;;;;;28.10;22.00;;;;;;;18.23;47.98;99523.56;104796;1259;74708;-60
2024/02/22 09:28:58;;;;;;;25.70;21.80;;;;;;;18.42;48.07;99520.00;106329;1257;64194;-60
2024/02/22 09:32:06;;;;;;;30.70;22.40;;;;;;;18.53;47.60;99518.77;105059;1255;60414;-61
2024/02/22 09:35:08;;;;;;;24.20;21.60;;;;;;;18.75;47.72;99515.84;105779;1254;72942;-60
2024/02/22 09:38:33;;;;;;;29.90;23.50;;;;;;;18.88;46.96;99514.65;105120;1259;70257;-61
2024/02/22 09:41:53;;;;;;;24.60;20.90;;;;;;;18.94;47.09;99507.67;105665;1256;72563;-63
2024/02/22 09:45:12;;;;;;;30.60;23.60;;;;;;;18.98;46.82;99506.79;106303;1253;61239;-64
2024/02/22 09:48:32;;;;;;;28.40;23.30;;;;;;;19.21;46.63;99504.75;105018;1255;59820;-63
2024/02/22 09:51:50;;;;;;;34.00;25.90;;;;;;;19.38;46.55;99498.98;105244;1253;73345;-62
2024/02/22 09:55:10;;;;;;;32.90;24.80;;;;;;;19.37;45.74;99500.43;104736;1262;70475;-63
2024/02/22 09:58:28;;;;;;;32.10;23.80;;;;;;;19.46;45.79;99493.89;105132;1253;72406;-62
2024/02/22 10:01:49;;;;;;;29.50;24.90;;;;;;;19.65;45.59;99495.99;105605;1257;61805;-67
2024/02/22 10:05:08;;;;;;;28.80;23.70;;;;;;;19.72;44.86;99482.48;104955;1255;59918;-63
2024/02/22 10:08:26;;;;;;;28.70;23.20;;;;;;;19.99;44.85;99485.20;105488;1253;73234;-64
2024/02/22 10:11:45;;;;;;;30.40;24.00;;;;;;;19.94;44.59;99481.70;105207;1260;70094;-63
2024/02/22 10:15:08;;;;;;;26.50;23.60;;;;;;;20.06;44.54;99477.17;105698;1254;73750;-64
2024/02/22 10:18:28;;;;;;;28.30;22.90;;;;;;;20.10;43.37;99475.02;105779;1253;60673;-63
2024/02/22 10:21:48;;;;;;;26.60;23.00;;;;;;;20.37;42.84;99472.02;105159;1254;60030;-62
2024/02/22 10:25:08;;;;;;;24.90;22.20;;;;;;;20.67;43.06;99467.31;104684;1260;73894;-62
2024/02/22 10:28:27;;;;;;;28.20;23.10;;;;;;;20.79;42.95;99463.59;105053;1256;70414;-65
2024/02/22 10:31:21;;;;;;;27.40;23.40;;;;;;;20.71;42.86;99449.66;105043;1256;72768;-63
2024/02/22 10:34:41;;;;;;;27.20;22.20;;;;;;;20.78;42.55;99448.03;106205;1253;61524;-63
2024/02/22 10:38:07;;;;;;;29.00;21.70;;;;;;;21.05;42.62;99450.54;106127;1253;63041;-63
2024/02/22 10:41:27;;;;;;;26.20;21.00;;;;;;;21.11;41.77;99449.69;104791;1257;73286;-63
2024/02/22 10:44:46;;;;;;;26.50;22.50;;;;;;;21.11;42.17;99446.31;104639;1254;70928;-61
2024/02/22 10:48:05;;;;;;;26.60;21.70;;;;;;;21.00;42.40;99447.09;105005;1254;74097;-62
2024/02/22 10:51:25;;;;;;;24.30;21.70;;;;;;;20.90;42.38;99442.80;104866;1259;64192;-61
2024/02/22 10:54:44;;;;;;;25.60;21.10;;;;;;;20.91;42.20;99440.22;104673;1257;59667;-60
2024/02/22 10:57:36;;;;;;;27.30;23.30;;;;;;;20.93;41.39;99438.60;106448;1254;73749;-62
2024/02/22 11:01:03;;;;;;;27.90;22.80;;;;;;;20.98;41.53;99434.66;105961;1253;69544;-64
2024/02/22 11:04:28;;;;;;;35.20;23.20;;;;;;;21.11;41.09;99431.31;104673;1256;72586;-61
2024/02/22 11:07:47;;;;;;;30.40;21.70;;;;;;;21.09;40.69;99429.91;104383;1256;61723;-59
2024/02/22 11:11:10;;;;;;;27.70;22.70;;;;;;;21.11;40.44;99423.63;104556;1256;59818;-59
2024/02/22 11:14:01;;;;;;;24.80;20.80;;;;;;;21.25;40.68;99428.48;104161;1268;74868;-60
2024/02/22 11:17:26;;;;;;;24.70;20.70;;;;;;;21.29;40.71;99426.86;104454;1258;70898;-60
2024/02/22 11:20:45;;;;;;;25.70;20.70;;;;;;;21.48;40.49;99422.52;105241;1255;73405;-60
2024/02/22 11:24:00;;;;;;;25.70;20.90;;;;;;;21.53;40.63;99417.95;104099;1274;61245;-59
2024/02/22 11:26:50;;;;;;;23.60;20.40;;;;;;;21.39;40.00;99417.91;104533;1256;60661;-60
2024/02/22 11:30:11;;;;;;;25.10;20.80;;;;;;;21.34;40.04;99416.96;104289;1257;74531;-60
2024/02/22 11:33:30;;;;;;;24.90;20.30;;;;;;;21.20;40.31;99412.59;104198;1267;69507;-61
2024/02/22 11:36:49;;;;;;;24.60;20.40;;;;;;;21.12;40.80;99412.58;104572;1255;72241;-61
2024/02/22 11:40:11;;;;;;;26.80;21.00;;;;;;;21.01;40.94;99407.30;105362;1256;61682;-61
2024/02/22 11:43:29;;;;;;;23.60;20.00;;;;;;;21.20;40.66;99405.38;104496;1258;60005;-61
2024/02/22 11:46:49;;;;;;;27.80;21.10;;;;;;;21.44;40.46;99400.58;104182;1258;73038;-62
2024/02/22 11:50:07;;;;;;;30.00;20.70;;;;;;;21.49;40.16;99394.00;105282;1255;68314;-62
2024/02/22 11:53:26;;;;;;;24.20;21.20;;;;;;;21.51;40.12;99393.34;104945;1255;72834;-61
2024/02/22 11:56:45;;;;;;;22.60;20.10;;;;;;;21.50;40.16;99387.14;104976;1255;61524;-60
2024/02/22 12:00:04;;;;;;;23.20;20.10;;;;;;;21.56;39.70;99383.04;104546;1256;60505;-60
2024/02/22 12:03:29;;;;;;;24.10;19.90;;;;;;;21.60;39.70;99374.86;104211;1268;73148;-61
2024/02/22 12:06:11;;;;;;;25.50;20.60;;;;;;;21.66;39.01;99375.73;104599;1261;69694;-60
2024/02/22 12:09:30;;;;;;;28.10;20.70;;;;;;;21.80;39.54;99377.05;105253;1257;72484;-61
2024/02/22 12:12:49;;;;;;;26.70;20.90;;;;;;;21.87;39.27;99376.28;104488;1259;62223;-60
2024/02/22 12:16:08;;;;;;;29.80;21.30;;;;;;;21.96;39.04;99373.98;105015;1254;60869;-61
2024/02/22 12:19:01;;;;;;;23.60;18.90;;;;;;;22.00;38.89;99360.07;105508;1253;72712;-60
2024/02/22 12:22:19;;;;;;;24.30;18.70;;;;;;;21.89;38.90;99366.09;104604;1258;69490;-61
2024/02/22 12:25:37;;;;;;;23.20;19.00;;;;;;;22.06;38.87;99359.69;104707;1257;72662;-62
2024/02/22 12:28:24;;;;;;;21.40;16.70;;;;;;;21.84;37.57;99364.79;105331;1256;62229;-60
2024/02/22 12:31:44;;;;;;;21.40;17.00;;;;;;;21.63;36.80;99361.73;104985;1261;60568;-60
2024/02/22 12:35:07;;;;;;;20.40;17.90;;;;;;;21.75;37.26;99357.27;104786;1260;75404;-60
2024/02/22 12:38:26;;;;;;;20.10;17.90;;;;;;;21.89;37.80;99352.86;105166;1254;69252;-60
2024/02/22 12:41:46;;;;;;;20.40;17.60;;;;;;;22.02;38.02;99347.86;104286;1261;72518;-59
2024/02/22 12:45:05;;;;;;;20.50;17.70;;;;;;;22.02;37.97;99346.71;104442;1273;62115;-59
2024/02/22 12:48:23;;;;;;;21.40;18.80;;;;;;;21.88;37.96;99346.52;105549;1254;60454;-60
2024/02/22 12:51:44;;;;;;;22.50;17.40;;;;;;;22.02;37.91;99344.00;104271;1275;73901;-60
2024/02/22 12:55:03;;;;;;;43.40;25.00;;;;;;;21.82;38.25;99338.34;104798;1256;69303;-59
2024/02/22 12:57:37;;;;;;;22.00;16.80;;;;;;;21.85;37.62;99331.66;104561;1259;73567;-61
2024/02/22 13:00:56;;;;;;;18.50;15.30;;;;;;;21.88;36.90;99329.09;104862;1257;61533;-60
2024/02/22 13:04:15;;;;;;;18.40;15.20;;;;;;;21.89;37.16;99326.11;104420;1262;60511;-61
2024/02/22 13:07:33;;;;;;;20.40;14.80;;;;;;;21.78;35.98;99324.81;104929;1259;73510;-60
2024/02/22 13:10:52;;;;;;;19.20;15.40;;;;;;;21.93;36.53;99320.38;104569;1259;69640;-60
2024/02/22 13:13:21;;;;;;;16.20;14.50;;;;;;;21.96;36.97;99321.82;104869;1254;72491;-59
2024/02/22 13:16:24;;;;;;;;;;;;;;;21.97;36.33;99321.99;105001;1256;61789;-60
2024/02/22 13:19:01;;;;;;;16.40;14.80;;;;;;;22.14;35.80;99316.54;104874;1253;60559;-60
2024/02/22 13:22:21;;;;;;;16.80;14.30;;;;;;;22.28;36.41;99312.38;104976;1256;73722;-58
2024/02/22 13:25:39;;;;;;;17.80;15.50;;;;;;;22.38;36.55;99308.79;104649;1260;69952;-60
2024/02/22 13:28:58;;;;;;;16.10;14.40;;;;;;;22.38;36.28;99304.36;105011;1256;72790;-59
2024/02/22 13:32:17;;;;;;;17.00;15.20;;;;;;;22.23;36.05;99307.71;105389;1254;61550;-59
2024/02/22 13:35:36;;;;;;;15.10;13.50;;;;;;;22.44;35.75;99301.09;105520;1259;60769;-60
2024/02/22 13:38:55;;;;;;;15.40;13.80;;;;;;;22.36;35.87;99300.25;105688;1253;73775;-59
2024/02/22 13:42:13;;;;;;;15.60;13.40;;;;;;;22.28;35.91;99295.25;104374;1254;70203;-60
2024/02/22 13:45:32;;;;;;;16.90;12.90;;;;;;;22.22;35.50;99291.23;105199;1253;72771;-58
2024/02/22 13:48:51;;;;;;;18.60;14.70;;;;;;;22.05;35.51;99286.94;104470;1266;61535;-58
2024/02/22 13:52:09;;;;;;;16.60;14.50;;;;;;;21.93;35.57;99285.70;104796;1254;60584;-59
2024/02/22 13:55:40;;;;;;;17.60;15.30;;;;;;;22.10;35.55;99283.74;104574;1272;74322;-63
2024/02/22 13:58:58;;;;;;;18.20;14.80;;;;;;;22.20;35.08;99275.17;105067;1255;69929;-60
2024/02/22 14:02:17;;;;;;;18.80;13.30;;;;;;;22.27;35.11;99273.09;104509;1256;73146;-59
2024/02/22 14:05:36;;;;;;;15.80;14.10;;;;;;;22.28;35.35;99274.92;104916;1256;63303;-60
2024/02/22 14:13:24;;;;;;;17.70;14.60;;;;;;;22.21;34.71;99264.17;104486;1259;74584;-60
2024/02/22 14:16:43;;;;;;;22.00;16.50;;;;;;;22.35;35.15;99266.94;105546;1256;69410;-60
2024/02/22 14:20:02;;;;;;;20.20;16.10;;;;;;;22.36;34.80;99260.90;104648;1256;74119;-62
2024/02/22 14:23:20;;;;;;;22.60;15.20;;;;;;;22.30;34.87;99260.26;104570;1273;61681;-59
2024/02/22 14:26:38;;;;;;;17.40;13.60;;;;;;;22.16;35.12;99251.73;104293;1256;60669;-59
2024/02/22 14:29:57;;;;;;;19.20;14.60;;;;;;;22.03;35.24;99242.65;104649;1257;74339;-60
2024/02/22 14:33:15;;;;;;;19.70;14.30;;;;;;;22.01;35.40;99247.52;105130;1256;71639;-60
2024/02/22 14:36:34;;;;;;;19.30;14.10;;;;;;;21.97;35.37;99245.21;104699;1258;72542;-61
2024/02/22 14:44:09;;;;;;;17.60;13.00;;;;;;;21.77;35.48;99237.36;106037;1255;61792;-61
2024/02/22 14:47:30;;;;;;;19.70;12.90;;;;;;;21.66;35.62;99237.17;105201;1258;74011;-61
2024/02/22 14:50:49;;;;;;;19.90;12.80;;;;;;;21.58;35.64;99235.72;104699;1257;70233;-60
2024/02/22 14:54:07;;;;;;;18.90;13.60;;;;;;;21.45;35.82;99235.73;105308;1258;73109;-61
2024/02/22 14:57:26;;;;;;;17.10;13.20;;;;;;;21.42;35.93;99235.99;105061;1258;64802;-60
2024/02/22 15:00:47;;;;;;;17.10;12.70;;;;;;;21.34;36.07;99233.33;105347;1260;60470;-60
2024/02/22 15:04:05;;;;;;;15.70;12.60;;;;;;;21.31;35.98;99230.30;104794;1260;72654;-60
2024/02/22 15:06:34;;;;;;;15.30;13.00;;;;;;;21.30;35.93;99229.06;105110;1260;69329;-60
2024/02/22 15:09:55;;;;;;;18.50;13.00;;;;;;;21.23;36.02;99232.02;104784;1257;72456;-64
2024/02/22 15:13:15;;;;;;;17.30;12.80;;;;;;;21.21;35.98;99229.36;104295;1276;62035;-60
2024/02/22 15:16:34;;;;;;;17.20;12.80;;;;;;;21.11;35.95;99230.52;104772;1259;60295;-61
2024/02/22 15:19:52;;;;;;;16.30;12.10;;;;;;;21.01;36.15;99230.58;104770;1262;74304;-60
2024/02/22 15:23:11;;;;;;;17.10;13.20;;;;;;;20.94;36.20;99236.73;104732;1259;71474;-59
2024/02/22 15:26:10;;;;;;;12.90;11.20;;;;;;;20.77;36.28;99239.15;104867;1256;72621;-61
2024/02/22 15:29:00;;;;;;;14.10;11.40;;;;;;;20.74;36.48;99241.23;105159;1259;61531;-60
2024/02/22 15:32:18;;;;;;;13.30;10.70;;;;;;;20.73;36.42;99239.36;105130;1255;60414;-59
2024/02/22 15:35:38;;;;;;;19.90;11.20;;;;;;;20.63;36.52;99239.23;104622;1271;73977;-61
2024/02/22 15:38:59;;;;;;;11.80;10.60;;;;;;;20.57;36.65;99238.96;104471;1259;69525;-61
2024/02/22 15:42:17;;;;;;;15.70;13.00;;;;;;;20.55;36.67;99243.96;105218;1259;72786;-61
2024/02/22 15:45:35;;;;;;;16.80;12.80;;;;;;;20.36;36.78;99246.77;104280;1260;60968;-60
2024/02/22 15:48:54;;;;;;;14.40;12.10;;;;;;;20.27;36.86;99250.92;104501;1263;60565;-60
2024/02/22 15:51:53;;;;;;;11.80;10.50;;;;;;;20.33;36.82;99247.42;105099;1253;74186;-60
2024/02/22 15:55:12;;;;;;;16.60;11.00;;;;;;;20.30;36.97;99247.87;104848;1256;69591;-60
2024/02/22 15:58:30;;;;;;;12.20;10.90;;;;;;;20.35;36.84;99254.31;105201;1258;73010;-61
2024/02/22 16:01:50;;;;;;;13.40;11.40;;;;;;;20.36;36.93;99259.73;104583;1253;61988;-62
2024/02/22 16:05:09;;;;;;;12.80;11.40;;;;;;;20.26;36.92;99264.19;104364;1260;60464;-62
2024/02/22 16:07:51;;;;;;;12.10;10.80;;;;;;;20.25;37.00;99264.82;105234;1259;72698;-65
2024/02/22 16:11:09;;;;;;;13.30;11.80;;;;;;;20.28;36.96;99267.27;104930;1254;69349;-62
2024/02/22 16:14:28;;;;;;;13.50;10.40;;;;;;;20.34;36.88;99267.25;104834;1259;72009;-60
2024/02/22 16:17:47;;;;;;;11.70;10.00;;;;;;;20.40;36.81;99263.85;105548;1256;61688;-60
2024/02/22 16:21:05;;;;;;;12.80;10.90;;;;;;;20.38;36.91;99257.10;104594;1256;60467;-60
2024/02/22 16:27:30;;;;;;;13.10;11.70;;;;;;;19.43;39.53;99255.66;101659;1289;616898;-60
2024/02/22 16:30:49;;;;;;;12.50;10.80;;;;;;;20.65;36.21;99249.48;104717;1271;61578;-62
2024/02/22 16:34:06;;;;;;;10.90;9.70;;;;;;;20.48;36.38;99249.46;104446;1263;59174;-61
2024/02/22 16:37:24;;;;;;;11.40;10.20;;;;;;;20.36;36.59;99244.77;104183;1264;72433;-61
2024/02/22 16:39:51;;;;;;;11.10;9.90;;;;;;;20.29;36.40;99247.25;102775;1275;1758844;-61
2024/02/22 16:43:09;;;;;;;11.20;9.90;;;;;;;20.32;36.34;99245.72;104207;1263;72456;-60
2024/02/22 16:46:28;;;;;;;13.00;10.60;;;;;;;20.30;36.48;99246.09;104479;1270;60922;-61
2024/02/22 16:49:39;;;;;;;11.70;9.50;;;;;;;20.27;36.53;99244.04;105356;1262;60050;-61
2024/02/22 16:52:57;;;;;;;11.30;10.00;;;;;;;20.25;36.53;99244.38;105601;1256;72646;-61
2024/02/22 16:56:14;;;;;;;14.20;10.30;;;;;;;20.09;36.77;99242.61;105648;1251;69707;-62
2024/02/22 16:59:32;;;;;;;11.80;10.50;;;;;;;20.02;36.79;99237.52;104788;1251;72850;-60
2024/02/22 17:02:50;;;;;;;11.70;10.10;;;;;;;19.94;36.83;99232.73;104885;1251;61597;-61
2024/02/22 17:06:07;;;;;;;13.40;10.60;;;;;;;19.78;37.04;99223.39;105114;1251;59748;-61
2024/02/22 17:09:23;;;;;;;11.50;10.40;;;;;;;19.73;37.07;99216.56;105149;1257;73413;-61
2024/02/22 17:12:40;;;;;;;13.10;11.30;;;;;;;19.67;37.29;99216.52;104945;1260;70377;-61
2024/02/22 17:15:26;;;;;;;12.00;10.70;;;;;;;19.62;37.43;99215.40;104994;1251;73535;-62
2024/02/22 17:18:44;;;;;;;12.70;11.00;;;;;;;19.60;37.37;99213.26;105224;1251;60977;-62
2024/02/22 17:22:02;;;;;;;15.10;11.60;;;;;;;19.59;37.41;99211.38;104878;1251;59829;-61
2024/02/22 17:25:20;;;;;;;15.00;12.50;;;;;;;19.52;37.57;99209.88;105789;1251;72899;-62
2024/02/22 17:28:38;;;;;;;14.90;12.50;;;;;;;19.50;37.59;99210.55;104686;1263;70028;-62
2024/02/22 17:31:56;;;;;;;20.70;14.70;;;;;;;19.41;37.63;99207.94;105043;1251;72546;-62
2024/02/22 17:35:18;;;;;;;16.30;13.40;;;;;;;19.31;37.87;99210.40;105560;1254;61357;-61
2024/02/22 17:38:09;;;;;;;17.80;13.90;;;;;;;19.30;37.84;99208.48;105091;1255;60171;-61
2024/02/22 17:41:27;;;;;;;19.30;14.40;;;;;;;19.32;37.95;99208.21;105544;1255;73074;-63
2024/02/22 17:44:01;;;;;;;31.30;20.10;;;;;;;19.33;37.93;99207.77;105099;1251;69832;-63
2024/02/22 17:47:21;;;;;;;31.60;22.00;;;;;;;19.31;37.95;99202.94;104680;1262;71523;-64
2024/02/22 17:49:49;;;;;;;24.30;18.50;;;;;;;19.30;37.96;99206.40;104642;1252;61137;-62
2024/02/22 17:53:07;;;;;;;22.90;15.50;;;;;;;19.31;37.92;99205.44;105283;1255;61516;-62
2024/02/22 17:56:25;;;;;;;17.10;14.90;;;;;;;19.41;37.75;99201.01;104662;1251;72662;-62
2024/02/22 17:59:43;;;;;;;20.30;16.20;;;;;;;19.31;37.93;99199.56;104944;1254;68432;-61
2024/02/22 18:03:01;;;;;;;21.60;17.30;;;;;;;19.24;38.05;99204.08;104642;1251;73751;-61
2024/02/22 18:06:22;;;;;;;18.50;15.40;;;;;;;19.23;38.16;99200.08;104822;1252;61923;-62
2024/02/22 18:09:03;;;;;;;21.50;16.90;;;;;;;19.24;38.10;99201.59;105049;1267;60181;-60
2024/02/22 18:12:26;;;;;;;24.10;17.30;;;;;;;19.20;38.10;99199.59;104836;1251;73060;-62
2024/02/22 18:15:43;;;;;;;20.60;16.70;;;;;;;19.26;38.05;99203.73;105819;1251;70184;-60
2024/02/22 18:19:00;;;;;;;21.00;16.10;;;;;;;19.24;37.97;99201.60;105334;1251;73245;-59
2024/02/22 18:22:23;;;;;;;21.50;16.00;;;;;;;19.26;38.07;99198.56;104839;1251;61925;-65
2024/02/22 18:25:41;;;;;;;20.80;16.60;;;;;;;19.23;38.15;99201.30;105612;1251;60070;-59
2024/02/22 18:28:58;;;;;;;21.60;16.50;;;;;;;19.16;38.26;99201.89;105397;1251;73646;-60
2024/02/22 18:31:56;;;;;;;19.90;15.30;;;;;;;19.15;38.32;99200.58;106123;1251;71626;-60
2024/02/22 18:35:13;;;;;;;20.10;15.40;;;;;;;19.18;38.26;99200.09;104579;1251;72635;-65
2024/02/22 18:38:32;;;;;;;18.10;14.80;;;;;;;19.26;38.24;99198.05;106958;1250;61000;-61
2024/02/22 18:41:47;;;;;;;15.60;13.60;;;;;;;19.24;38.27;99197.96;104621;1256;60588;-60
2024/02/22 18:45:04;;;;;;;16.60;13.90;;;;;;;19.23;38.31;99197.02;104699;1254;73119;-60
2024/02/22 18:51:46;;;;;;;17.30;13.30;;;;;;;19.22;38.17;99190.93;104781;1254;72603;-60
2024/02/22 18:54:48;;;;;;;16.20;13.00;;;;;;;19.14;38.19;99186.66;105299;1251;61155;-60
2024/02/22 18:58:06;;;;;;;16.10;14.10;;;;;;;19.19;38.24;99186.23;106064;1251;60120;-61
2024/02/22 19:01:24;;;;;;;15.20;12.70;;;;;;;19.18;38.20;99184.19;105414;1254;72800;-61
2024/02/22 19:04:02;;;;;;;15.00;13.00;;;;;;;19.03;38.30;99178.46;105182;1255;70976;-60
2024/02/22 19:07:21;;;;;;;16.30;14.00;;;;;;;18.98;38.45;99184.40;105410;1250;73757;-60
2024/02/22 19:10:41;;;;;;;15.80;13.40;;;;;;;19.02;38.30;99182.30;105120;1252;62230;-62
2024/02/22 19:14:00;;;;;;;16.70;12.80;;;;;;;18.99;38.34;99178.86;105953;1251;60012;-62